sensor_id;sensor_type;location;lat;lon;timestamp;P1;durP1;ratioP1;P2;durP2;ratioP2
9076;SDS011;4574;51.072;17.174;2023-04-06T00:00:29;66.30;;;32.80;;
9076;SDS011;4574;51.072;17.174;2023-04-06T00:02:59;65.10;;;32.20;;
9076;SDS011;4574;51.072;17.174;2023-04-06T00:05:28;70.03;;;34.23;;
9076;SDS011;4574;51.072;17.174;2023-04-06T00:07:57;81.63;;;36.07;;
9076;SDS011;4574;51.072;17.174;2023-04-06T00:10:26;72.67;;;33.97;;
9076;SDS011;4574;51.072;17.174;2023-04-06T00:12:54;76.27;;;33.57;;
9076;SDS011;4574;51.072;17.174;2023-04-06T00:15:24;88.03;;;37.53;;
9076;SDS011;4574;51.072;17.174;2023-04-06T00:17:52;48.13;;;27.13;;
9076;SDS011;4574;51.072;17.174;2023-04-06T00:20:22;47.83;;;26.83;;
9076;SDS011;4574;51.072;17.174;2023-04-06T00:22:51;48.93;;;27.53;;
9076;SDS011;4574;51.072;17.174;2023-04-06T00:25:20;46.70;;;27.27;;
9076;SDS011;4574;51.072;17.174;2023-04-06T00:27:49;46.17;;;28.37;;
9076;SDS011;4574;51.072;17.174;2023-04-06T00:30:18;49.03;;;29.37;;
9076;SDS011;4574;51.072;17.174;2023-04-06T00:32:46;55.27;;;31.03;;
9076;SDS011;4574;51.072;17.174;2023-04-06T00:35:15;53.43;;;30.33;;
9076;SDS011;4574;51.072;17.174;2023-04-06T00:37:45;48.30;;;29.60;;
9076;SDS011;4574;51.072;17.174;2023-04-06T00:40:14;45.53;;;26.60;;
9076;SDS011;4574;51.072;17.174;2023-04-06T00:42:43;44.50;;;26.70;;
9076;SDS011;4574;51.072;17.174;2023-04-06T00:45:12;52.00;;;29.53;;
9076;SDS011;4574;51.072;17.174;2023-04-06T00:47:40;48.27;;;29.33;;
9076;SDS011;4574;51.072;17.174;2023-04-06T00:50:09;50.30;;;29.17;;
9076;SDS011;4574;51.072;17.174;2023-04-06T00:52:37;53.70;;;30.07;;
9076;SDS011;4574;51.072;17.174;2023-04-06T00:55:08;51.07;;;30.23;;
9076;SDS011;4574;51.072;17.174;2023-04-06T00:57:36;53.90;;;29.03;;
9076;SDS011;4574;51.072;17.174;2023-04-06T01:00:06;50.83;;;30.37;;
9076;SDS011;4574;51.072;17.174;2023-04-06T01:02:35;47.00;;;28.73;;
9076;SDS011;4574;51.072;17.174;2023-04-06T01:05:04;53.03;;;29.63;;
9076;SDS011;4574;51.072;17.174;2023-04-06T01:07:34;44.20;;;26.47;;
9076;SDS011;4574;51.072;17.174;2023-04-06T01:10:02;47.87;;;28.83;;
9076;SDS011;4574;51.072;17.174;2023-04-06T01:12:33;50.07;;;27.73;;
9076;SDS011;4574;51.072;17.174;2023-04-06T01:15:01;46.10;;;28.60;;
9076;SDS011;4574;51.072;17.174;2023-04-06T01:17:30;47.13;;;28.37;;
9076;SDS011;4574;51.072;17.174;2023-04-06T01:19:59;50.10;;;28.80;;
9076;SDS011;4574;51.072;17.174;2023-04-06T01:22:29;44.83;;;28.63;;
9076;SDS011;4574;51.072;17.174;2023-04-06T01:24:57;55.03;;;29.60;;
9076;SDS011;4574;51.072;17.174;2023-04-06T01:27:26;57.07;;;29.33;;
9076;SDS011;4574;51.072;17.174;2023-04-06T01:29:56;45.33;;;27.83;;
9076;SDS011;4574;51.072;17.174;2023-04-06T01:32:25;45.23;;;27.20;;
9076;SDS011;4574;51.072;17.174;2023-04-06T01:34:53;50.27;;;28.40;;
9076;SDS011;4574;51.072;17.174;2023-04-06T01:37:22;51.03;;;28.47;;
9076;SDS011;4574;51.072;17.174;2023-04-06T01:39:52;50.47;;;29.67;;
9076;SDS011;4574;51.072;17.174;2023-04-06T01:42:21;53.40;;;31.80;;
9076;SDS011;4574;51.072;17.174;2023-04-06T01:44:50;52.37;;;31.87;;
9076;SDS011;4574;51.072;17.174;2023-04-06T01:47:18;54.27;;;32.70;;
9076;SDS011;4574;51.072;17.174;2023-04-06T01:49:47;50.83;;;28.37;;
9076;SDS011;4574;51.072;17.174;2023-04-06T01:52:16;50.90;;;29.47;;
9076;SDS011;4574;51.072;17.174;2023-04-06T01:54:44;51.67;;;29.80;;
9076;SDS011;4574;51.072;17.174;2023-04-06T01:57:15;45.93;;;26.97;;
9076;SDS011;4574;51.072;17.174;2023-04-06T01:59:43;45.07;;;27.47;;
9076;SDS011;4574;51.072;17.174;2023-04-06T02:02:12;45.87;;;25.83;;
9076;SDS011;4574;51.072;17.174;2023-04-06T02:04:41;42.03;;;25.27;;
9076;SDS011;4574;51.072;17.174;2023-04-06T02:07:10;42.30;;;26.00;;
9076;SDS011;4574;51.072;17.174;2023-04-06T02:09:39;41.93;;;24.97;;
9076;SDS011;4574;51.072;17.174;2023-04-06T02:12:07;43.83;;;24.50;;
9076;SDS011;4574;51.072;17.174;2023-04-06T02:14:37;44.00;;;25.37;;
9076;SDS011;4574;51.072;17.174;2023-04-06T02:17:06;42.60;;;25.27;;
9076;SDS011;4574;51.072;17.174;2023-04-06T02:19:35;43.03;;;24.60;;
9076;SDS011;4574;51.072;17.174;2023-04-06T02:22:03;40.50;;;24.50;;
9076;SDS011;4574;51.072;17.174;2023-04-06T02:24:32;43.27;;;25.20;;
9076;SDS011;4574;51.072;17.174;2023-04-06T02:27:01;38.40;;;24.40;;
9076;SDS011;4574;51.072;17.174;2023-04-06T02:29:29;37.93;;;24.00;;
9076;SDS011;4574;51.072;17.174;2023-04-06T02:31:59;40.47;;;24.30;;
9076;SDS011;4574;51.072;17.174;2023-04-06T02:34:28;37.73;;;24.23;;
9076;SDS011;4574;51.072;17.174;2023-04-06T02:36:57;42.63;;;25.53;;
9076;SDS011;4574;51.072;17.174;2023-04-06T02:39:26;36.67;;;24.13;;
9076;SDS011;4574;51.072;17.174;2023-04-06T02:41:55;40.27;;;23.77;;
9076;SDS011;4574;51.072;17.174;2023-04-06T02:44:25;37.17;;;23.03;;
9076;SDS011;4574;51.072;17.174;2023-04-06T02:46:53;36.60;;;22.73;;
9076;SDS011;4574;51.072;17.174;2023-04-06T02:49:23;41.47;;;24.73;;
9076;SDS011;4574;51.072;17.174;2023-04-06T02:51:52;37.07;;;22.00;;
9076;SDS011;4574;51.072;17.174;2023-04-06T02:54:20;36.77;;;22.33;;
9076;SDS011;4574;51.072;17.174;2023-04-06T02:56:49;35.37;;;22.77;;
9076;SDS011;4574;51.072;17.174;2023-04-06T02:59:17;36.97;;;22.90;;
9076;SDS011;4574;51.072;17.174;2023-04-06T03:01:46;43.27;;;24.00;;
9076;SDS011;4574;51.072;17.174;2023-04-06T03:04:15;47.17;;;24.77;;
9076;SDS011;4574;51.072;17.174;2023-04-06T03:06:45;43.10;;;24.57;;
9076;SDS011;4574;51.072;17.174;2023-04-06T03:09:14;44.00;;;25.17;;
9076;SDS011;4574;51.072;17.174;2023-04-06T03:11:42;42.10;;;24.93;;
9076;SDS011;4574;51.072;17.174;2023-04-06T03:14:11;42.37;;;24.77;;
9076;SDS011;4574;51.072;17.174;2023-04-06T03:16:41;43.27;;;25.23;;
9076;SDS011;4574;51.072;17.174;2023-04-06T03:19:09;41.00;;;24.33;;
9076;SDS011;4574;51.072;17.174;2023-04-06T03:21:38;35.40;;;22.97;;
9076;SDS011;4574;51.072;17.174;2023-04-06T03:24:08;35.40;;;23.40;;
9076;SDS011;4574;51.072;17.174;2023-04-06T03:26:36;43.13;;;22.43;;
9076;SDS011;4574;51.072;17.174;2023-04-06T03:29:05;35.30;;;21.53;;
9076;SDS011;4574;51.072;17.174;2023-04-06T03:31:34;38.10;;;21.63;;
9076;SDS011;4574;51.072;17.174;2023-04-06T03:34:03;34.33;;;21.30;;
9076;SDS011;4574;51.072;17.174;2023-04-06T03:36:31;33.93;;;21.43;;
9076;SDS011;4574;51.072;17.174;2023-04-06T03:39:01;36.50;;;21.70;;
9076;SDS011;4574;51.072;17.174;2023-04-06T03:41:31;37.13;;;20.97;;
9076;SDS011;4574;51.072;17.174;2023-04-06T03:44:00;40.90;;;22.13;;
9076;SDS011;4574;51.072;17.174;2023-04-06T03:46:29;36.67;;;24.80;;
9076;SDS011;4574;51.072;17.174;2023-04-06T03:48:57;40.08;;;23.67;;
9076;SDS011;4574;51.072;17.174;2023-04-06T03:51:27;39.00;;;21.40;;
9076;SDS011;4574;51.072;17.174;2023-04-06T03:53:56;37.45;;;23.70;;
9076;SDS011;4574;51.072;17.174;2023-04-06T03:56:24;40.20;;;22.63;;
9076;SDS011;4574;51.072;17.174;2023-04-06T03:58:54;37.38;;;22.25;;
9076;SDS011;4574;51.072;17.174;2023-04-06T04:01:23;37.00;;;22.43;;
9076;SDS011;4574;51.072;17.174;2023-04-06T04:03:51;39.33;;;22.63;;
9076;SDS011;4574;51.072;17.174;2023-04-06T04:06:20;38.67;;;21.67;;
9076;SDS011;4574;51.072;17.174;2023-04-06T04:08:48;43.63;;;23.43;;
9076;SDS011;4574;51.072;17.174;2023-04-06T04:11:17;45.13;;;22.67;;
9076;SDS011;4574;51.072;17.174;2023-04-06T04:13:46;42.00;;;22.77;;
9076;SDS011;4574;51.072;17.174;2023-04-06T04:16:16;40.17;;;22.40;;
9076;SDS011;4574;51.072;17.174;2023-04-06T04:18:45;36.87;;;21.60;;
9076;SDS011;4574;51.072;17.174;2023-04-06T04:21:15;40.93;;;23.10;;
9076;SDS011;4574;51.072;17.174;2023-04-06T04:23:43;42.40;;;23.17;;
9076;SDS011;4574;51.072;17.174;2023-04-06T04:26:12;48.60;;;24.80;;
9076;SDS011;4574;51.072;17.174;2023-04-06T04:28:40;43.23;;;23.93;;
9076;SDS011;4574;51.072;17.174;2023-04-06T04:31:09;43.23;;;24.80;;
9076;SDS011;4574;51.072;17.174;2023-04-06T04:33:39;45.13;;;22.50;;
9076;SDS011;4574;51.072;17.174;2023-04-06T04:36:09;48.35;;;26.23;;
9076;SDS011;4574;51.072;17.174;2023-04-06T04:38:38;55.30;;;28.37;;
9076;SDS011;4574;51.072;17.174;2023-04-06T04:41:07;49.75;;;25.13;;
9076;SDS011;4574;51.072;17.174;2023-04-06T04:43:36;44.80;;;26.63;;
9076;SDS011;4574;51.072;17.174;2023-04-06T04:46:05;46.97;;;25.00;;
9076;SDS011;4574;51.072;17.174;2023-04-06T04:48:33;49.47;;;28.05;;
9076;SDS011;4574;51.072;17.174;2023-04-06T04:51:04;48.90;;;26.27;;
9076;SDS011;4574;51.072;17.174;2023-04-06T04:53:32;46.30;;;25.10;;
9076;SDS011;4574;51.072;17.174;2023-04-06T04:56:01;49.30;;;26.17;;
9076;SDS011;4574;51.072;17.174;2023-04-06T04:58:30;51.30;;;26.53;;
9076;SDS011;4574;51.072;17.174;2023-04-06T05:00:58;45.95;;;26.45;;
9076;SDS011;4574;51.072;17.174;2023-04-06T05:03:27;53.20;;;27.63;;
9076;SDS011;4574;51.072;17.174;2023-04-06T05:05:55;55.20;;;29.07;;
9076;SDS011;4574;51.072;17.174;2023-04-06T05:08:25;56.47;;;30.47;;
9076;SDS011;4574;51.072;17.174;2023-04-06T05:10:54;55.05;;;31.48;;
9076;SDS011;4574;51.072;17.174;2023-04-06T05:13:23;56.60;;;31.47;;
9076;SDS011;4574;51.072;17.174;2023-04-06T05:15:52;58.27;;;31.67;;
9076;SDS011;4574;51.072;17.174;2023-04-06T05:18:21;59.30;;;31.73;;
9076;SDS011;4574;51.072;17.174;2023-04-06T05:20:49;49.90;;;28.13;;
9076;SDS011;4574;51.072;17.174;2023-04-06T05:23:18;47.13;;;27.58;;
9076;SDS011;4574;51.072;17.174;2023-04-06T05:25:48;53.30;;;28.10;;
9076;SDS011;4574;51.072;17.174;2023-04-06T05:28:17;45.53;;;28.00;;
9076;SDS011;4574;51.072;17.174;2023-04-06T05:30:46;46.33;;;28.00;;
9076;SDS011;4574;51.072;17.174;2023-04-06T05:33:15;55.97;;;29.07;;
9076;SDS011;4574;51.072;17.174;2023-04-06T05:35:43;56.05;;;30.38;;
9076;SDS011;4574;51.072;17.174;2023-04-06T05:38:12;48.43;;;29.20;;
9076;SDS011;4574;51.072;17.174;2023-04-06T05:40:41;53.22;;;30.15;;
9076;SDS011;4574;51.072;17.174;2023-04-06T05:43:11;42.42;;;25.85;;
9076;SDS011;4574;51.072;17.174;2023-04-06T05:45:39;50.87;;;28.47;;
9076;SDS011;4574;51.072;17.174;2023-04-06T05:48:08;51.10;;;28.53;;
9076;SDS011;4574;51.072;17.174;2023-04-06T05:50:36;49.47;;;27.37;;
9076;SDS011;4574;51.072;17.174;2023-04-06T05:53:05;52.23;;;29.27;;
9076;SDS011;4574;51.072;17.174;2023-04-06T05:55:33;49.47;;;29.93;;
9076;SDS011;4574;51.072;17.174;2023-04-06T05:58:02;57.37;;;29.87;;
9076;SDS011;4574;51.072;17.174;2023-04-06T06:00:32;49.67;;;28.63;;
9076;SDS011;4574;51.072;17.174;2023-04-06T06:03:01;51.03;;;28.93;;
9076;SDS011;4574;51.072;17.174;2023-04-06T06:05:31;46.47;;;27.00;;
9076;SDS011;4574;51.072;17.174;2023-04-06T06:07:59;50.70;;;28.27;;
9076;SDS011;4574;51.072;17.174;2023-04-06T06:10:28;44.10;;;26.23;;
9076;SDS011;4574;51.072;17.174;2023-04-06T06:12:57;46.37;;;26.53;;
9076;SDS011;4574;51.072;17.174;2023-04-06T06:15:26;44.20;;;25.67;;
9076;SDS011;4574;51.072;17.174;2023-04-06T06:17:56;45.63;;;26.37;;
9076;SDS011;4574;51.072;17.174;2023-04-06T06:20:25;49.90;;;26.83;;
9076;SDS011;4574;51.072;17.174;2023-04-06T06:22:53;53.47;;;26.77;;
9076;SDS011;4574;51.072;17.174;2023-04-06T06:25:22;44.23;;;24.90;;
9076;SDS011;4574;51.072;17.174;2023-04-06T06:27:51;42.50;;;24.67;;
9076;SDS011;4574;51.072;17.174;2023-04-06T06:30:20;45.67;;;25.37;;
9076;SDS011;4574;51.072;17.174;2023-04-06T06:32:49;46.67;;;24.73;;
9076;SDS011;4574;51.072;17.174;2023-04-06T06:35:20;46.90;;;27.10;;
9076;SDS011;4574;51.072;17.174;2023-04-06T06:37:48;49.00;;;27.73;;
9076;SDS011;4574;51.072;17.174;2023-04-06T06:40:17;43.15;;;25.33;;
9076;SDS011;4574;51.072;17.174;2023-04-06T06:42:46;44.40;;;25.87;;
9076;SDS011;4574;51.072;17.174;2023-04-06T06:45:18;44.53;;;26.37;;
9076;SDS011;4574;51.072;17.174;2023-04-06T06:47:47;42.47;;;25.80;;
9076;SDS011;4574;51.072;17.174;2023-04-06T06:50:21;46.97;;;27.93;;
9076;SDS011;4574;51.072;17.174;2023-04-06T06:52:50;45.80;;;26.27;;
9076;SDS011;4574;51.072;17.174;2023-04-06T06:55:19;45.07;;;26.20;;
9076;SDS011;4574;51.072;17.174;2023-04-06T06:57:47;43.70;;;27.50;;
9076;SDS011;4574;51.072;17.174;2023-04-06T07:00:16;47.43;;;27.30;;
9076;SDS011;4574;51.072;17.174;2023-04-06T07:02:46;46.60;;;27.17;;
9076;SDS011;4574;51.072;17.174;2023-04-06T07:05:15;45.07;;;27.67;;
9076;SDS011;4574;51.072;17.174;2023-04-06T07:07:55;50.00;;;28.97;;
9076;SDS011;4574;51.072;17.174;2023-04-06T07:10:24;47.00;;;28.00;;
9076;SDS011;4574;51.072;17.174;2023-04-06T07:12:53;47.13;;;28.80;;
9076;SDS011;4574;51.072;17.174;2023-04-06T07:15:21;51.60;;;30.00;;
9076;SDS011;4574;51.072;17.174;2023-04-06T07:17:56;45.42;;;29.05;;
9076;SDS011;4574;51.072;17.174;2023-04-06T07:20:28;52.30;;;29.33;;
9076;SDS011;4574;51.072;17.174;2023-04-06T07:22:58;50.53;;;29.80;;
9076;SDS011;4574;51.072;17.174;2023-04-06T07:25:26;41.20;;;25.83;;
9076;SDS011;4574;51.072;17.174;2023-04-06T07:27:55;39.57;;;23.50;;
9076;SDS011;4574;51.072;17.174;2023-04-06T07:30:24;39.13;;;23.63;;
9076;SDS011;4574;51.072;17.174;2023-04-06T07:32:57;34.20;;;21.50;;
9076;SDS011;4574;51.072;17.174;2023-04-06T07:35:26;38.37;;;22.97;;
9076;SDS011;4574;51.072;17.174;2023-04-06T07:37:58;38.67;;;22.30;;
9076;SDS011;4574;51.072;17.174;2023-04-06T07:40:27;33.37;;;21.23;;
9076;SDS011;4574;51.072;17.174;2023-04-06T07:42:55;36.80;;;21.67;;
9076;SDS011;4574;51.072;17.174;2023-04-06T07:45:24;29.53;;;19.50;;
9076;SDS011;4574;51.072;17.174;2023-04-06T07:47:54;31.83;;;18.97;;
9076;SDS011;4574;51.072;17.174;2023-04-06T07:50:22;30.47;;;17.97;;
9076;SDS011;4574;51.072;17.174;2023-04-06T07:52:51;29.47;;;18.13;;
9076;SDS011;4574;51.072;17.174;2023-04-06T07:55:21;32.67;;;19.10;;
9076;SDS011;4574;51.072;17.174;2023-04-06T07:57:50;35.23;;;16.97;;
9076;SDS011;4574;51.072;17.174;2023-04-06T08:00:19;24.97;;;16.23;;
9076;SDS011;4574;51.072;17.174;2023-04-06T08:02:48;33.10;;;15.07;;
9076;SDS011;4574;51.072;17.174;2023-04-06T08:05:18;23.23;;;13.87;;
9076;SDS011;4574;51.072;17.174;2023-04-06T08:07:47;23.53;;;13.43;;
9076;SDS011;4574;51.072;17.174;2023-04-06T08:10:16;28.77;;;15.33;;
9076;SDS011;4574;51.072;17.174;2023-04-06T08:12:46;22.27;;;13.47;;
9076;SDS011;4574;51.072;17.174;2023-04-06T08:15:14;21.40;;;13.57;;
9076;SDS011;4574;51.072;17.174;2023-04-06T08:17:44;16.33;;;10.93;;
9076;SDS011;4574;51.072;17.174;2023-04-06T08:20:13;20.67;;;11.23;;
9076;SDS011;4574;51.072;17.174;2023-04-06T08:22:42;19.53;;;11.20;;
9076;SDS011;4574;51.072;17.174;2023-04-06T08:25:11;19.43;;;11.40;;
9076;SDS011;4574;51.072;17.174;2023-04-06T08:27:39;19.67;;;10.13;;
9076;SDS011;4574;51.072;17.174;2023-04-06T08:30:10;18.30;;;10.10;;
9076;SDS011;4574;51.072;17.174;2023-04-06T08:32:43;16.83;;;10.27;;
9076;SDS011;4574;51.072;17.174;2023-04-06T08:35:12;15.63;;;9.13;;
9076;SDS011;4574;51.072;17.174;2023-04-06T08:37:41;14.33;;;9.60;;
9076;SDS011;4574;51.072;17.174;2023-04-06T08:40:10;13.67;;;9.83;;
9076;SDS011;4574;51.072;17.174;2023-04-06T08:42:40;11.93;;;7.70;;
9076;SDS011;4574;51.072;17.174;2023-04-06T08:45:13;13.60;;;7.60;;
9076;SDS011;4574;51.072;17.174;2023-04-06T08:47:44;12.73;;;7.40;;
9076;SDS011;4574;51.072;17.174;2023-04-06T08:50:15;14.70;;;7.63;;
9076;SDS011;4574;51.072;17.174;2023-04-06T08:52:46;10.70;;;6.87;;
9076;SDS011;4574;51.072;17.174;2023-04-06T08:55:15;19.60;;;7.87;;
9076;SDS011;4574;51.072;17.174;2023-04-06T08:57:44;10.33;;;6.80;;
9076;SDS011;4574;51.072;17.174;2023-04-06T09:00:16;11.47;;;7.43;;
9076;SDS011;4574;51.072;17.174;2023-04-06T09:02:46;11.33;;;7.63;;
9076;SDS011;4574;51.072;17.174;2023-04-06T09:05:17;11.47;;;7.80;;
9076;SDS011;4574;51.072;17.174;2023-04-06T09:07:46;10.77;;;7.10;;
9076;SDS011;4574;51.072;17.174;2023-04-06T09:10:15;10.10;;;6.50;;
9076;SDS011;4574;51.072;17.174;2023-04-06T09:12:45;10.47;;;6.73;;
9076;SDS011;4574;51.072;17.174;2023-04-06T09:15:21;11.43;;;6.73;;
9076;SDS011;4574;51.072;17.174;2023-04-06T09:17:50;10.80;;;6.80;;
9076;SDS011;4574;51.072;17.174;2023-04-06T09:20:22;11.63;;;7.20;;
9076;SDS011;4574;51.072;17.174;2023-04-06T09:22:53;9.27;;;6.53;;
9076;SDS011;4574;51.072;17.174;2023-04-06T09:25:22;10.50;;;6.67;;
9076;SDS011;4574;51.072;17.174;2023-04-06T09:28:00;13.43;;;6.47;;
9076;SDS011;4574;51.072;17.174;2023-04-06T09:30:31;9.87;;;6.47;;
9076;SDS011;4574;51.072;17.174;2023-04-06T09:33:01;13.30;;;7.07;;
9076;SDS011;4574;51.072;17.174;2023-04-06T09:35:30;9.33;;;6.70;;
9076;SDS011;4574;51.072;17.174;2023-04-06T09:38:09;12.37;;;7.30;;
9076;SDS011;4574;51.072;17.174;2023-04-06T09:40:47;11.93;;;7.50;;
9076;SDS011;4574;51.072;17.174;2023-04-06T09:43:27;10.97;;;7.20;;
9076;SDS011;4574;51.072;17.174;2023-04-06T09:45:57;9.10;;;6.70;;
9076;SDS011;4574;51.072;17.174;2023-04-06T09:48:31;11.30;;;7.20;;
9076;SDS011;4574;51.072;17.174;2023-04-06T09:51:03;10.60;;;6.93;;
9076;SDS011;4574;51.072;17.174;2023-04-06T09:53:35;9.87;;;6.67;;
9076;SDS011;4574;51.072;17.174;2023-04-06T09:56:11;8.40;;;6.30;;
9076;SDS011;4574;51.072;17.174;2023-04-06T09:58:40;9.07;;;5.93;;
9076;SDS011;4574;51.072;17.174;2023-04-06T10:01:15;12.67;;;6.63;;
9076;SDS011;4574;51.072;17.174;2023-04-06T10:03:52;12.87;;;7.77;;
9076;SDS011;4574;51.072;17.174;2023-04-06T10:06:28;10.90;;;8.23;;
9076;SDS011;4574;51.072;17.174;2023-04-06T10:09:02;8.80;;;6.90;;
9076;SDS011;4574;51.072;17.174;2023-04-06T10:11:34;12.10;;;6.70;;
9076;SDS011;4574;51.072;17.174;2023-04-06T10:14:07;7.07;;;6.00;;
9076;SDS011;4574;51.072;17.174;2023-04-06T10:16:40;11.40;;;6.50;;
9076;SDS011;4574;51.072;17.174;2023-04-06T10:19:11;10.00;;;6.33;;
9076;SDS011;4574;51.072;17.174;2023-04-06T10:21:41;12.80;;;7.10;;
9076;SDS011;4574;51.072;17.174;2023-04-06T10:24:13;12.13;;;6.07;;
9076;SDS011;4574;51.072;17.174;2023-04-06T10:26:43;11.10;;;6.20;;
9076;SDS011;4574;51.072;17.174;2023-04-06T10:29:25;7.47;;;5.37;;
9076;SDS011;4574;51.072;17.174;2023-04-06T10:31:56;9.17;;;5.47;;
9076;SDS011;4574;51.072;17.174;2023-04-06T10:34:34;8.40;;;5.63;;
9076;SDS011;4574;51.072;17.174;2023-04-06T10:37:10;8.43;;;5.47;;
9076;SDS011;4574;51.072;17.174;2023-04-06T10:39:46;9.20;;;5.20;;
9076;SDS011;4574;51.072;17.174;2023-04-06T10:42:15;9.03;;;5.93;;
9076;SDS011;4574;51.072;17.174;2023-04-06T10:44:44;8.23;;;4.77;;
9076;SDS011;4574;51.072;17.174;2023-04-06T10:47:18;7.53;;;4.80;;
9076;SDS011;4574;51.072;17.174;2023-04-06T10:49:47;8.53;;;5.13;;
9076;SDS011;4574;51.072;17.174;2023-04-06T10:52:15;7.10;;;5.23;;
9076;SDS011;4574;51.072;17.174;2023-04-06T10:54:44;7.97;;;4.83;;
9076;SDS011;4574;51.072;17.174;2023-04-06T10:57:15;7.27;;;5.07;;
9076;SDS011;4574;51.072;17.174;2023-04-06T10:59:44;15.37;;;5.43;;
9076;SDS011;4574;51.072;17.174;2023-04-06T11:02:21;9.27;;;5.63;;
9076;SDS011;4574;51.072;17.174;2023-04-06T11:04:56;7.37;;;4.87;;
9076;SDS011;4574;51.072;17.174;2023-04-06T11:07:25;9.73;;;5.50;;
9076;SDS011;4574;51.072;17.174;2023-04-06T11:09:55;9.57;;;5.57;;
9076;SDS011;4574;51.072;17.174;2023-04-06T11:12:42;9.40;;;5.17;;
9076;SDS011;4574;51.072;17.174;2023-04-06T11:15:10;7.67;;;5.30;;
9076;SDS011;4574;51.072;17.174;2023-04-06T11:17:40;6.67;;;5.37;;
9076;SDS011;4574;51.072;17.174;2023-04-06T11:20:09;7.37;;;5.17;;
9076;SDS011;4574;51.072;17.174;2023-04-06T11:22:47;8.87;;;5.90;;
9076;SDS011;4574;51.072;17.174;2023-04-06T11:25:17;12.83;;;7.57;;
9076;SDS011;4574;51.072;17.174;2023-04-06T11:27:46;136.63;;;75.53;;
9076;SDS011;4574;51.072;17.174;2023-04-06T11:30:16;242.50;;;130.87;;
9076;SDS011;4574;51.072;17.174;2023-04-06T11:32:46;45.67;;;29.20;;
9076;SDS011;4574;51.072;17.174;2023-04-06T11:35:19;9.60;;;5.90;;
9076;SDS011;4574;51.072;17.174;2023-04-06T11:37:48;10.03;;;6.53;;
9076;SDS011;4574;51.072;17.174;2023-04-06T11:40:20;8.43;;;5.70;;
9076;SDS011;4574;51.072;17.174;2023-04-06T11:42:52;9.03;;;5.90;;
9076;SDS011;4574;51.072;17.174;2023-04-06T11:45:21;8.20;;;5.90;;
9076;SDS011;4574;51.072;17.174;2023-04-06T11:47:58;8.07;;;5.30;;
9076;SDS011;4574;51.072;17.174;2023-04-06T11:50:31;13.67;;;7.23;;
9076;SDS011;4574;51.072;17.174;2023-04-06T11:53:01;10.77;;;6.60;;
9076;SDS011;4574;51.072;17.174;2023-04-06T11:55:36;9.37;;;7.10;;
9076;SDS011;4574;51.072;17.174;2023-04-06T11:58:05;9.47;;;7.07;;
9076;SDS011;4574;51.072;17.174;2023-04-06T12:00:34;14.17;;;8.00;;
9076;SDS011;4574;51.072;17.174;2023-04-06T12:03:05;14.90;;;8.23;;
9076;SDS011;4574;51.072;17.174;2023-04-06T12:05:34;18.90;;;10.57;;
9076;SDS011;4574;51.072;17.174;2023-04-06T12:08:04;11.43;;;7.30;;
9076;SDS011;4574;51.072;17.174;2023-04-06T12:10:35;9.83;;;7.60;;
9076;SDS011;4574;51.072;17.174;2023-04-06T12:13:04;7.70;;;5.80;;
9076;SDS011;4574;51.072;17.174;2023-04-06T12:15:33;10.13;;;6.30;;
9076;SDS011;4574;51.072;17.174;2023-04-06T12:18:02;8.30;;;6.17;;
9076;SDS011;4574;51.072;17.174;2023-04-06T12:20:32;10.20;;;6.50;;
9076;SDS011;4574;51.072;17.174;2023-04-06T12:23:01;10.60;;;7.03;;
9076;SDS011;4574;51.072;17.174;2023-04-06T12:25:29;10.03;;;7.03;;
9076;SDS011;4574;51.072;17.174;2023-04-06T12:27:58;8.33;;;6.23;;
9076;SDS011;4574;51.072;17.174;2023-04-06T12:30:27;9.60;;;7.47;;
9076;SDS011;4574;51.072;17.174;2023-04-06T12:32:55;8.13;;;6.33;;
9076;SDS011;4574;51.072;17.174;2023-04-06T12:35:24;8.50;;;6.07;;
9076;SDS011;4574;51.072;17.174;2023-04-06T12:37:56;9.83;;;6.63;;
9076;SDS011;4574;51.072;17.174;2023-04-06T12:40:25;10.57;;;6.70;;
9076;SDS011;4574;51.072;17.174;2023-04-06T12:42:53;8.07;;;5.67;;
9076;SDS011;4574;51.072;17.174;2023-04-06T12:45:22;8.23;;;5.83;;
9076;SDS011;4574;51.072;17.174;2023-04-06T12:47:51;9.87;;;5.90;;
9076;SDS011;4574;51.072;17.174;2023-04-06T12:50:19;7.10;;;5.70;;
9076;SDS011;4574;51.072;17.174;2023-04-06T12:52:48;10.17;;;5.87;;
9076;SDS011;4574;51.072;17.174;2023-04-06T12:55:18;7.10;;;5.67;;
9076;SDS011;4574;51.072;17.174;2023-04-06T12:57:48;9.00;;;5.87;;
9076;SDS011;4574;51.072;17.174;2023-04-06T13:00:17;10.90;;;6.97;;
9076;SDS011;4574;51.072;17.174;2023-04-06T13:02:47;7.67;;;5.63;;
9076;SDS011;4574;51.072;17.174;2023-04-06T13:05:16;6.77;;;5.27;;
9076;SDS011;4574;51.072;17.174;2023-04-06T13:07:45;8.70;;;6.00;;
9076;SDS011;4574;51.072;17.174;2023-04-06T13:10:14;8.07;;;5.80;;
9076;SDS011;4574;51.072;17.174;2023-04-06T13:12:44;6.77;;;6.03;;
9076;SDS011;4574;51.072;17.174;2023-04-06T13:15:13;7.07;;;5.53;;
9076;SDS011;4574;51.072;17.174;2023-04-06T13:17:41;6.47;;;5.33;;
9076;SDS011;4574;51.072;17.174;2023-04-06T13:20:10;6.47;;;5.00;;
9076;SDS011;4574;51.072;17.174;2023-04-06T13:22:39;5.70;;;4.63;;
9076;SDS011;4574;51.072;17.174;2023-04-06T13:25:10;5.60;;;4.60;;
9076;SDS011;4574;51.072;17.174;2023-04-06T13:27:38;7.20;;;5.33;;
9076;SDS011;4574;51.072;17.174;2023-04-06T13:30:09;8.27;;;4.83;;
9076;SDS011;4574;51.072;17.174;2023-04-06T13:32:41;6.77;;;5.07;;
9076;SDS011;4574;51.072;17.174;2023-04-06T13:35:10;14.30;;;5.50;;
9076;SDS011;4574;51.072;17.174;2023-04-06T13:37:39;6.03;;;4.70;;
9076;SDS011;4574;51.072;17.174;2023-04-06T13:40:08;10.43;;;5.47;;
9076;SDS011;4574;51.072;17.174;2023-04-06T13:42:38;7.50;;;5.40;;
9076;SDS011;4574;51.072;17.174;2023-04-06T13:45:09;6.27;;;4.73;;
9076;SDS011;4574;51.072;17.174;2023-04-06T13:47:38;7.13;;;5.20;;
9076;SDS011;4574;51.072;17.174;2023-04-06T13:50:08;6.53;;;4.07;;
9076;SDS011;4574;51.072;17.174;2023-04-06T13:52:36;7.50;;;4.83;;
9076;SDS011;4574;51.072;17.174;2023-04-06T13:55:05;5.90;;;4.87;;
9076;SDS011;4574;51.072;17.174;2023-04-06T13:57:35;4.87;;;4.23;;
9076;SDS011;4574;51.072;17.174;2023-04-06T14:00:04;7.47;;;5.27;;
9076;SDS011;4574;51.072;17.174;2023-04-06T14:02:35;6.90;;;4.57;;
9076;SDS011;4574;51.072;17.174;2023-04-06T14:05:05;7.33;;;5.03;;
9076;SDS011;4574;51.072;17.174;2023-04-06T14:07:34;5.53;;;4.90;;
9076;SDS011;4574;51.072;17.174;2023-04-06T14:10:02;7.33;;;5.50;;
9076;SDS011;4574;51.072;17.174;2023-04-06T14:12:31;7.07;;;5.50;;
9076;SDS011;4574;51.072;17.174;2023-04-06T14:15:00;9.03;;;5.50;;
9076;SDS011;4574;51.072;17.174;2023-04-06T14:17:28;7.50;;;5.43;;
9076;SDS011;4574;51.072;17.174;2023-04-06T14:19:58;7.77;;;5.30;;
9076;SDS011;4574;51.072;17.174;2023-04-06T14:22:27;5.27;;;4.60;;
9076;SDS011;4574;51.072;17.174;2023-04-06T14:24:56;5.27;;;4.53;;
9076;SDS011;4574;51.072;17.174;2023-04-06T14:27:25;6.07;;;5.03;;
9076;SDS011;4574;51.072;17.174;2023-04-06T14:29:53;8.03;;;5.30;;
9076;SDS011;4574;51.072;17.174;2023-04-06T14:32:22;6.37;;;5.00;;
9076;SDS011;4574;51.072;17.174;2023-04-06T14:34:52;10.40;;;5.03;;
9076;SDS011;4574;51.072;17.174;2023-04-06T14:37:23;5.63;;;4.73;;
9076;SDS011;4574;51.072;17.174;2023-04-06T14:39:51;7.83;;;5.50;;
9076;SDS011;4574;51.072;17.174;2023-04-06T14:42:20;5.73;;;5.10;;
9076;SDS011;4574;51.072;17.174;2023-04-06T14:44:49;6.93;;;5.23;;
9076;SDS011;4574;51.072;17.174;2023-04-06T14:47:19;5.27;;;4.70;;
9076;SDS011;4574;51.072;17.174;2023-04-06T14:49:49;6.57;;;5.17;;
9076;SDS011;4574;51.072;17.174;2023-04-06T14:52:20;6.43;;;5.43;;
9076;SDS011;4574;51.072;17.174;2023-04-06T14:54:50;6.20;;;5.00;;
9076;SDS011;4574;51.072;17.174;2023-04-06T14:57:19;7.03;;;4.60;;